Terminal Aerodrome Forecast
Issued by NWS Mt. Holly, NJ

Home | Current Version | Previous Version | Text Only | Print | Product List | Glossary On
Versions: 1 2 3 4 5 6 7 8 9 10 11 12 13 14 15 16 17 18 19 20 21 22 23 24 25 26 27 28 29 30 31 32 33 34 35 36 37 38 39 40 41 42 43 44 45 46 47 48 49 50
917
FTUS41 KPHI 282027 AAB
TAFABE
TAF AMD
KABE 282027Z 2820/2918 VRB10G20KT 1SM +TSRA OVC015CB
     FM282130 23005KT P6SM BKN050
      TEMPO 2822/2902 4SM TSRA BKN035CB
     FM290200 VRB03KT P6SM BKN050
      TEMPO 2902/2906 3SM -SHRA OVC035
     FM290600 05006KT 4SM -SHRA BR OVC025
     FM290900 05006KT 2SM +SHRA BR OVC015
     FM291100 30008KT P6SM VCSH OVC015
      TEMPO 2911/2914 4SM -SHRA
     FM291400 34010KT P6SM OVC025
     FM291600 34010KT P6SM BKN050=

USA.gov is the U.S. government's official web portal to all federal, state and local government web resources and services.